sensor_id;sensor_type;location;lat;lon;timestamp;temperature;humidity
21823;DHT22;11074;48.596;9.238;2022-11-15T00:00:54;7.20;99.90
21823;DHT22;11074;48.596;9.238;2022-11-15T00:03:23;7.20;99.90
21823;DHT22;11074;48.596;9.238;2022-11-15T00:05:50;7.20;99.90
21823;DHT22;11074;48.596;9.238;2022-11-15T00:08:16;7.20;99.90
21823;DHT22;11074;48.596;9.238;2022-11-15T00:10:42;7.20;99.90
21823;DHT22;11074;48.596;9.238;2022-11-15T00:13:10;7.20;99.90
21823;DHT22;11074;48.596;9.238;2022-11-15T00:15:38;7.20;99.90
21823;DHT22;11074;48.596;9.238;2022-11-15T00:18:09;7.10;99.90
21823;DHT22;11074;48.596;9.238;2022-11-15T00:20:38;7.10;99.90
21823;DHT22;11074;48.596;9.238;2022-11-15T00:23:04;7.10;99.90
21823;DHT22;11074;48.596;9.238;2022-11-15T00:25:30;7.00;99.90
21823;DHT22;11074;48.596;9.238;2022-11-15T00:27:57;7.00;99.90
21823;DHT22;11074;48.596;9.238;2022-11-15T00:30:24;7.00;99.90
21823;DHT22;11074;48.596;9.238;2022-11-15T00:32:50;7.00;99.90
21823;DHT22;11074;48.596;9.238;2022-11-15T00:35:16;7.00;99.90
21823;DHT22;11074;48.596;9.238;2022-11-15T00:37:42;7.00;99.90
21823;DHT22;11074;48.596;9.238;2022-11-15T00:40:08;7.00;99.90
21823;DHT22;11074;48.596;9.238;2022-11-15T00:42:34;7.00;99.90
21823;DHT22;11074;48.596;9.238;2022-11-15T00:45:00;7.00;99.90
21823;DHT22;11074;48.596;9.238;2022-11-15T00:47:26;7.00;99.90
21823;DHT22;11074;48.596;9.238;2022-11-15T00:49:51;7.00;99.90
21823;DHT22;11074;48.596;9.238;2022-11-15T00:52:17;7.00;99.90
21823;DHT22;11074;48.596;9.238;2022-11-15T00:54:43;7.00;99.90
21823;DHT22;11074;48.596;9.238;2022-11-15T00:57:08;6.90;99.90
21823;DHT22;11074;48.596;9.238;2022-11-15T00:59:34;6.90;99.90
21823;DHT22;11074;48.596;9.238;2022-11-15T01:02:00;6.90;99.90
21823;DHT22;11074;48.596;9.238;2022-11-15T01:04:26;6.90;99.90
21823;DHT22;11074;48.596;9.238;2022-11-15T01:06:52;6.90;99.90
21823;DHT22;11074;48.596;9.238;2022-11-15T01:09:19;6.90;99.90
21823;DHT22;11074;48.596;9.238;2022-11-15T01:11:44;6.80;99.90
21823;DHT22;11074;48.596;9.238;2022-11-15T01:14:10;6.80;99.90
21823;DHT22;11074;48.596;9.238;2022-11-15T01:16:36;6.80;99.90
21823;DHT22;11074;48.596;9.238;2022-11-15T01:19:02;6.80;99.90
21823;DHT22;11074;48.596;9.238;2022-11-15T01:21:28;6.80;99.90
21823;DHT22;11074;48.596;9.238;2022-11-15T01:23:55;6.80;99.90
21823;DHT22;11074;48.596;9.238;2022-11-15T01:26:22;6.80;99.90
21823;DHT22;11074;48.596;9.238;2022-11-15T01:28:50;6.70;99.90
21823;DHT22;11074;48.596;9.238;2022-11-15T01:31:18;6.70;99.90
21823;DHT22;11074;48.596;9.238;2022-11-15T01:33:46;6.70;99.90
21823;DHT22;11074;48.596;9.238;2022-11-15T01:36:15;6.70;99.90
21823;DHT22;11074;48.596;9.238;2022-11-15T01:38:43;6.80;99.90
21823;DHT22;11074;48.596;9.238;2022-11-15T01:41:25;6.80;99.90
21823;DHT22;11074;48.596;9.238;2022-11-15T01:47:12;6.70;99.90
21823;DHT22;11074;48.596;9.238;2022-11-15T01:50:10;6.70;99.90
21823;DHT22;11074;48.596;9.238;2022-11-15T01:52:37;6.70;99.90
21823;DHT22;11074;48.596;9.238;2022-11-15T01:57:41;6.70;99.90
21823;DHT22;11074;48.596;9.238;2022-11-15T02:00:10;6.70;99.90
21823;DHT22;11074;48.596;9.238;2022-11-15T02:02:37;6.60;99.90
21823;DHT22;11074;48.596;9.238;2022-11-15T02:05:03;6.60;99.90
21823;DHT22;11074;48.596;9.238;2022-11-15T02:10:56;6.60;99.90
21823;DHT22;11074;48.596;9.238;2022-11-15T02:13:22;6.60;99.90
21823;DHT22;11074;48.596;9.238;2022-11-15T02:18:38;6.60;99.90
21823;DHT22;11074;48.596;9.238;2022-11-15T02:21:28;6.60;99.90
21823;DHT22;11074;48.596;9.238;2022-11-15T02:24:43;6.50;99.90
21823;DHT22;11074;48.596;9.238;2022-11-15T02:30:49;6.50;99.90
21823;DHT22;11074;48.596;9.238;2022-11-15T02:36:32;6.50;99.90
21823;DHT22;11074;48.596;9.238;2022-11-15T02:39:14;6.50;99.90
21823;DHT22;11074;48.596;9.238;2022-11-15T02:42:07;6.50;99.90
21823;DHT22;11074;48.596;9.238;2022-11-15T02:44:57;6.50;99.90
21823;DHT22;11074;48.596;9.238;2022-11-15T02:47:31;6.40;99.90
21823;DHT22;11074;48.596;9.238;2022-11-15T02:50:06;6.40;99.90
21823;DHT22;11074;48.596;9.238;2022-11-15T02:52:34;6.40;99.90
21823;DHT22;11074;48.596;9.238;2022-11-15T02:55:00;6.40;99.90
21823;DHT22;11074;48.596;9.238;2022-11-15T02:57:44;6.40;99.90
21823;DHT22;11074;48.596;9.238;2022-11-15T03:00:20;6.40;99.90
21823;DHT22;11074;48.596;9.238;2022-11-15T03:08:56;6.30;99.90
21823;DHT22;11074;48.596;9.238;2022-11-15T03:11:23;6.30;99.90
21823;DHT22;11074;48.596;9.238;2022-11-15T03:16:34;6.30;99.90
21823;DHT22;11074;48.596;9.238;2022-11-15T03:19:13;6.30;99.90
21823;DHT22;11074;48.596;9.238;2022-11-15T03:21:44;6.30;99.90
21823;DHT22;11074;48.596;9.238;2022-11-15T03:24:13;6.40;99.90
21823;DHT22;11074;48.596;9.238;2022-11-15T03:26:42;6.40;99.90
21823;DHT22;11074;48.596;9.238;2022-11-15T03:29:16;6.40;99.90
21823;DHT22;11074;48.596;9.238;2022-11-15T03:31:48;6.40;99.90
21823;DHT22;11074;48.596;9.238;2022-11-15T03:34:39;6.40;99.90
21823;DHT22;11074;48.596;9.238;2022-11-15T03:37:11;6.40;99.90
21823;DHT22;11074;48.596;9.238;2022-11-15T03:39:40;6.40;99.90
21823;DHT22;11074;48.596;9.238;2022-11-15T03:45:20;6.50;99.90
21823;DHT22;11074;48.596;9.238;2022-11-15T03:48:10;6.50;99.90
21823;DHT22;11074;48.596;9.238;2022-11-15T03:50:41;6.50;99.90
21823;DHT22;11074;48.596;9.238;2022-11-15T03:53:09;6.50;99.90
21823;DHT22;11074;48.596;9.238;2022-11-15T03:55:35;6.50;99.90
21823;DHT22;11074;48.596;9.238;2022-11-15T03:58:01;6.50;99.90
21823;DHT22;11074;48.596;9.238;2022-11-15T04:00:28;6.40;99.90
21823;DHT22;11074;48.596;9.238;2022-11-15T04:02:54;6.40;99.90
21823;DHT22;11074;48.596;9.238;2022-11-15T04:05:20;6.40;99.90
21823;DHT22;11074;48.596;9.238;2022-11-15T04:07:46;6.40;99.90
21823;DHT22;11074;48.596;9.238;2022-11-15T04:10:12;6.30;99.90
21823;DHT22;11074;48.596;9.238;2022-11-15T04:12:41;6.30;99.90
21823;DHT22;11074;48.596;9.238;2022-11-15T04:15:15;6.30;99.90
21823;DHT22;11074;48.596;9.238;2022-11-15T04:17:55;6.20;99.90
21823;DHT22;11074;48.596;9.238;2022-11-15T04:20:24;6.20;99.90
21823;DHT22;11074;48.596;9.238;2022-11-15T04:23:13;6.20;99.90
21823;DHT22;11074;48.596;9.238;2022-11-15T04:26:02;6.20;99.90
21823;DHT22;11074;48.596;9.238;2022-11-15T04:28:30;6.20;99.90
21823;DHT22;11074;48.596;9.238;2022-11-15T04:30:55;6.20;99.90
21823;DHT22;11074;48.596;9.238;2022-11-15T04:33:21;6.20;99.90
21823;DHT22;11074;48.596;9.238;2022-11-15T04:35:47;6.20;99.90
21823;DHT22;11074;48.596;9.238;2022-11-15T04:38:34;6.20;99.90
21823;DHT22;11074;48.596;9.238;2022-11-15T04:41:01;6.20;99.90
21823;DHT22;11074;48.596;9.238;2022-11-15T04:43:27;6.20;99.90
21823;DHT22;11074;48.596;9.238;2022-11-15T04:45:53;6.10;99.90
21823;DHT22;11074;48.596;9.238;2022-11-15T04:48:19;6.10;99.90
21823;DHT22;11074;48.596;9.238;2022-11-15T04:50:47;6.10;99.90
21823;DHT22;11074;48.596;9.238;2022-11-15T04:53:14;6.10;99.90
21823;DHT22;11074;48.596;9.238;2022-11-15T04:55:39;6.10;99.90
21823;DHT22;11074;48.596;9.238;2022-11-15T04:58:05;6.10;99.90
21823;DHT22;11074;48.596;9.238;2022-11-15T05:00:31;6.10;99.90
21823;DHT22;11074;48.596;9.238;2022-11-15T05:02:56;6.10;99.90
21823;DHT22;11074;48.596;9.238;2022-11-15T05:05:41;6.10;99.90
21823;DHT22;11074;48.596;9.238;2022-11-15T05:08:07;6.10;99.90
21823;DHT22;11074;48.596;9.238;2022-11-15T05:10:33;6.10;99.90
21823;DHT22;11074;48.596;9.238;2022-11-15T05:12:58;6.10;99.90
21823;DHT22;11074;48.596;9.238;2022-11-15T05:15:24;6.10;99.90
21823;DHT22;11074;48.596;9.238;2022-11-15T05:17:50;6.10;99.90
21823;DHT22;11074;48.596;9.238;2022-11-15T05:20:15;6.10;99.90
21823;DHT22;11074;48.596;9.238;2022-11-15T05:22:41;6.10;99.90
21823;DHT22;11074;48.596;9.238;2022-11-15T05:25:07;6.10;99.90
21823;DHT22;11074;48.596;9.238;2022-11-15T05:27:34;6.10;99.90
21823;DHT22;11074;48.596;9.238;2022-11-15T05:30:00;6.10;99.90
21823;DHT22;11074;48.596;9.238;2022-11-15T05:32:26;6.10;99.90
21823;DHT22;11074;48.596;9.238;2022-11-15T05:34:52;6.10;99.90
21823;DHT22;11074;48.596;9.238;2022-11-15T05:37:20;6.10;99.90
21823;DHT22;11074;48.596;9.238;2022-11-15T05:39:45;6.10;99.90
21823;DHT22;11074;48.596;9.238;2022-11-15T05:42:14;6.10;99.90
21823;DHT22;11074;48.596;9.238;2022-11-15T05:44:44;6.10;99.90
21823;DHT22;11074;48.596;9.238;2022-11-15T05:47:17;6.10;99.90
21823;DHT22;11074;48.596;9.238;2022-11-15T05:49:49;6.10;99.90
21823;DHT22;11074;48.596;9.238;2022-11-15T05:52:22;6.10;99.90
21823;DHT22;11074;48.596;9.238;2022-11-15T05:54:53;6.10;99.90
21823;DHT22;11074;48.596;9.238;2022-11-15T05:57:21;6.20;99.90
21823;DHT22;11074;48.596;9.238;2022-11-15T05:59:46;6.10;99.90
21823;DHT22;11074;48.596;9.238;2022-11-15T06:02:12;6.20;99.90
21823;DHT22;11074;48.596;9.238;2022-11-15T06:04:38;6.20;99.90
21823;DHT22;11074;48.596;9.238;2022-11-15T06:07:04;6.20;99.90
21823;DHT22;11074;48.596;9.238;2022-11-15T06:09:29;6.20;99.90
21823;DHT22;11074;48.596;9.238;2022-11-15T06:11:55;6.10;99.90
21823;DHT22;11074;48.596;9.238;2022-11-15T06:14:21;6.10;99.90
21823;DHT22;11074;48.596;9.238;2022-11-15T06:16:46;6.10;99.90
21823;DHT22;11074;48.596;9.238;2022-11-15T06:19:12;6.00;99.90
21823;DHT22;11074;48.596;9.238;2022-11-15T06:21:38;6.00;99.90
21823;DHT22;11074;48.596;9.238;2022-11-15T06:24:04;6.00;99.90
21823;DHT22;11074;48.596;9.238;2022-11-15T06:26:31;6.00;99.90
21823;DHT22;11074;48.596;9.238;2022-11-15T06:28:56;6.00;99.90
21823;DHT22;11074;48.596;9.238;2022-11-15T06:31:22;6.00;99.90
21823;DHT22;11074;48.596;9.238;2022-11-15T06:33:48;6.00;99.90
21823;DHT22;11074;48.596;9.238;2022-11-15T06:36:15;6.00;99.90
21823;DHT22;11074;48.596;9.238;2022-11-15T06:38:43;6.00;99.90
21823;DHT22;11074;48.596;9.238;2022-11-15T06:41:10;6.00;99.90
21823;DHT22;11074;48.596;9.238;2022-11-15T06:43:37;6.00;99.90
21823;DHT22;11074;48.596;9.238;2022-11-15T06:46:05;6.00;99.90
21823;DHT22;11074;48.596;9.238;2022-11-15T06:48:33;6.00;99.90
21823;DHT22;11074;48.596;9.238;2022-11-15T06:51:00;6.10;99.90
21823;DHT22;11074;48.596;9.238;2022-11-15T06:53:28;6.10;99.90
21823;DHT22;11074;48.596;9.238;2022-11-15T06:56:03;6.10;99.90
21823;DHT22;11074;48.596;9.238;2022-11-15T06:58:30;6.10;99.90
21823;DHT22;11074;48.596;9.238;2022-11-15T07:01:01;6.10;99.90
21823;DHT22;11074;48.596;9.238;2022-11-15T07:03:29;6.10;99.90
21823;DHT22;11074;48.596;9.238;2022-11-15T07:05:56;6.10;99.90
21823;DHT22;11074;48.596;9.238;2022-11-15T07:08:23;6.10;99.90
21823;DHT22;11074;48.596;9.238;2022-11-15T07:10:50;6.10;99.90
21823;DHT22;11074;48.596;9.238;2022-11-15T07:13:16;6.20;99.90
21823;DHT22;11074;48.596;9.238;2022-11-15T07:15:41;6.20;99.90
21823;DHT22;11074;48.596;9.238;2022-11-15T07:18:07;6.20;99.90
21823;DHT22;11074;48.596;9.238;2022-11-15T07:20:32;6.30;99.90
21823;DHT22;11074;48.596;9.238;2022-11-15T07:23:07;6.30;99.90
21823;DHT22;11074;48.596;9.238;2022-11-15T07:25:33;6.30;99.90
21823;DHT22;11074;48.596;9.238;2022-11-15T07:28:00;6.10;99.90
21823;DHT22;11074;48.596;9.238;2022-11-15T07:30:26;6.40;99.90
21823;DHT22;11074;48.596;9.238;2022-11-15T07:33:00;6.90;99.90
21823;DHT22;11074;48.596;9.238;2022-11-15T07:35:27;7.20;99.90
21823;DHT22;11074;48.596;9.238;2022-11-15T07:38:02;7.40;99.90
21823;DHT22;11074;48.596;9.238;2022-11-15T07:40:29;7.10;99.90
21823;DHT22;11074;48.596;9.238;2022-11-15T07:43:05;7.80;99.90
21823;DHT22;11074;48.596;9.238;2022-11-15T07:45:32;8.60;99.90
21823;DHT22;11074;48.596;9.238;2022-11-15T07:48:00;8.60;99.90
21823;DHT22;11074;48.596;9.238;2022-11-15T07:50:27;8.20;99.90
21823;DHT22;11074;48.596;9.238;2022-11-15T07:52:57;8.20;99.90
21823;DHT22;11074;48.596;9.238;2022-11-15T07:55:25;8.50;99.90
21823;DHT22;11074;48.596;9.238;2022-11-15T07:57:53;8.20;99.90
21823;DHT22;11074;48.596;9.238;2022-11-15T08:00:24;8.30;99.90
21823;DHT22;11074;48.596;9.238;2022-11-15T08:02:50;8.30;99.90
21823;DHT22;11074;48.596;9.238;2022-11-15T08:05:16;8.00;99.90
21823;DHT22;11074;48.596;9.238;2022-11-15T08:07:42;7.90;99.90
21823;DHT22;11074;48.596;9.238;2022-11-15T08:10:07;7.70;99.90
21823;DHT22;11074;48.596;9.238;2022-11-15T08:12:33;7.70;99.90
21823;DHT22;11074;48.596;9.238;2022-11-15T08:14:59;7.60;99.90
21823;DHT22;11074;48.596;9.238;2022-11-15T08:17:25;7.50;99.90
21823;DHT22;11074;48.596;9.238;2022-11-15T08:19:51;7.50;99.90
21823;DHT22;11074;48.596;9.238;2022-11-15T08:22:17;7.50;99.90
21823;DHT22;11074;48.596;9.238;2022-11-15T08:24:44;7.40;99.90
21823;DHT22;11074;48.596;9.238;2022-11-15T08:27:09;7.40;99.90
21823;DHT22;11074;48.596;9.238;2022-11-15T08:29:48;7.40;99.90
21823;DHT22;11074;48.596;9.238;2022-11-15T08:32:14;7.30;99.90
21823;DHT22;11074;48.596;9.238;2022-11-15T08:34:40;7.30;99.90
21823;DHT22;11074;48.596;9.238;2022-11-15T08:37:06;7.30;99.90
21823;DHT22;11074;48.596;9.238;2022-11-15T08:39:32;7.30;99.90
21823;DHT22;11074;48.596;9.238;2022-11-15T08:41:58;7.30;99.90
21823;DHT22;11074;48.596;9.238;2022-11-15T08:44:24;7.30;99.90
21823;DHT22;11074;48.596;9.238;2022-11-15T08:46:50;7.30;99.90
21823;DHT22;11074;48.596;9.238;2022-11-15T08:49:16;7.40;99.90
21823;DHT22;11074;48.596;9.238;2022-11-15T08:51:42;7.50;99.90
21823;DHT22;11074;48.596;9.238;2022-11-15T08:54:07;7.50;99.90
21823;DHT22;11074;48.596;9.238;2022-11-15T08:56:33;7.50;99.90
21823;DHT22;11074;48.596;9.238;2022-11-15T08:58:59;7.60;99.90
21823;DHT22;11074;48.596;9.238;2022-11-15T09:01:25;7.60;99.90
21823;DHT22;11074;48.596;9.238;2022-11-15T09:03:50;7.60;99.90
21823;DHT22;11074;48.596;9.238;2022-11-15T09:06:16;7.60;99.90
21823;DHT22;11074;48.596;9.238;2022-11-15T09:08:42;7.60;99.90
21823;DHT22;11074;48.596;9.238;2022-11-15T09:11:10;7.70;99.90
21823;DHT22;11074;48.596;9.238;2022-11-15T09:13:36;7.70;99.90
21823;DHT22;11074;48.596;9.238;2022-11-15T09:16:03;7.70;99.90
21823;DHT22;11074;48.596;9.238;2022-11-15T09:18:29;7.80;99.90
21823;DHT22;11074;48.596;9.238;2022-11-15T09:20:59;7.80;99.90
21823;DHT22;11074;48.596;9.238;2022-11-15T09:23:25;7.80;99.90
21823;DHT22;11074;48.596;9.238;2022-11-15T09:25:52;7.90;99.90
21823;DHT22;11074;48.596;9.238;2022-11-15T09:28:18;7.90;99.90
21823;DHT22;11074;48.596;9.238;2022-11-15T09:30:44;8.00;99.90
21823;DHT22;11074;48.596;9.238;2022-11-15T09:33:11;8.00;99.90
21823;DHT22;11074;48.596;9.238;2022-11-15T09:35:38;8.00;99.90
21823;DHT22;11074;48.596;9.238;2022-11-15T09:38:03;8.00;99.90
21823;DHT22;11074;48.596;9.238;2022-11-15T09:40:31;8.00;99.90
21823;DHT22;11074;48.596;9.238;2022-11-15T09:48:50;8.10;99.90
21823;DHT22;11074;48.596;9.238;2022-11-15T09:51:43;8.20;99.90
21823;DHT22;11074;48.596;9.238;2022-11-15T09:57:14;8.20;99.90
21823;DHT22;11074;48.596;9.238;2022-11-15T09:59:49;8.30;99.90
21823;DHT22;11074;48.596;9.238;2022-11-15T10:02:32;8.40;99.90
21823;DHT22;11074;48.596;9.238;2022-11-15T10:05:09;8.50;99.90
21823;DHT22;11074;48.596;9.238;2022-11-15T10:07:56;8.50;99.90
21823;DHT22;11074;48.596;9.238;2022-11-15T10:10:45;8.60;99.90
21823;DHT22;11074;48.596;9.238;2022-11-15T10:13:24;8.70;99.90
21823;DHT22;11074;48.596;9.238;2022-11-15T10:15:59;8.70;99.90
21823;DHT22;11074;48.596;9.238;2022-11-15T10:18:35;8.80;99.90
21823;DHT22;11074;48.596;9.238;2022-11-15T10:21:21;8.80;99.90
21823;DHT22;11074;48.596;9.238;2022-11-15T10:24:13;8.80;99.90
21823;DHT22;11074;48.596;9.238;2022-11-15T10:26:48;8.90;99.90
21823;DHT22;11074;48.596;9.238;2022-11-15T10:29:22;8.90;99.90
21823;DHT22;11074;48.596;9.238;2022-11-15T10:31:49;9.00;99.90
21823;DHT22;11074;48.596;9.238;2022-11-15T10:34:18;9.10;99.90
21823;DHT22;11074;48.596;9.238;2022-11-15T10:36:59;9.10;99.90
21823;DHT22;11074;48.596;9.238;2022-11-15T10:39:27;9.20;99.90
21823;DHT22;11074;48.596;9.238;2022-11-15T10:41:54;9.30;99.90
21823;DHT22;11074;48.596;9.238;2022-11-15T10:44:31;9.30;99.90
21823;DHT22;11074;48.596;9.238;2022-11-15T10:49:31;9.40;99.90
21823;DHT22;11074;48.596;9.238;2022-11-15T10:52:17;9.50;99.90
21823;DHT22;11074;48.596;9.238;2022-11-15T10:54:48;9.50;99.90
21823;DHT22;11074;48.596;9.238;2022-11-15T10:57:33;9.50;99.90
21823;DHT22;11074;48.596;9.238;2022-11-15T11:00:07;9.50;99.90
21823;DHT22;11074;48.596;9.238;2022-11-15T11:02:58;9.60;99.90
21823;DHT22;11074;48.596;9.238;2022-11-15T11:05:37;9.60;99.90
21823;DHT22;11074;48.596;9.238;2022-11-15T11:10:36;9.60;99.90
21823;DHT22;11074;48.596;9.238;2022-11-15T11:13:22;9.60;99.90
21823;DHT22;11074;48.596;9.238;2022-11-15T11:16:03;9.60;99.90
21823;DHT22;11074;48.596;9.238;2022-11-15T11:18:38;9.70;99.90
21823;DHT22;11074;48.596;9.238;2022-11-15T11:21:18;9.80;99.90
21823;DHT22;11074;48.596;9.238;2022-11-15T11:38:07;10.20;99.90
21823;DHT22;11074;48.596;9.238;2022-11-15T11:47:03;10.50;99.90
21823;DHT22;11074;48.596;9.238;2022-11-15T11:49:53;10.50;99.90
21823;DHT22;11074;48.596;9.238;2022-11-15T11:55:03;10.70;99.90
21823;DHT22;11074;48.596;9.238;2022-11-15T11:57:48;10.70;99.90
21823;DHT22;11074;48.596;9.238;2022-11-15T12:00:40;10.80;99.90
21823;DHT22;11074;48.596;9.238;2022-11-15T12:03:17;10.80;99.90
21823;DHT22;11074;48.596;9.238;2022-11-15T12:06:24;10.70;99.90
21823;DHT22;11074;48.596;9.238;2022-11-15T12:12:18;10.80;99.90
21823;DHT22;11074;48.596;9.238;2022-11-15T12:15:10;10.80;99.90
21823;DHT22;11074;48.596;9.238;2022-11-15T12:17:41;10.70;99.90
21823;DHT22;11074;48.596;9.238;2022-11-15T12:20:22;10.80;99.90
21823;DHT22;11074;48.596;9.238;2022-11-15T12:23:13;10.80;99.90
21823;DHT22;11074;48.596;9.238;2022-11-15T12:28:44;10.80;99.90
21823;DHT22;11074;48.596;9.238;2022-11-15T12:36:48;10.80;99.90
21823;DHT22;11074;48.596;9.238;2022-11-15T12:39:16;10.80;99.90
21823;DHT22;11074;48.596;9.238;2022-11-15T12:41:45;10.90;99.90
21823;DHT22;11074;48.596;9.238;2022-11-15T12:47:08;10.90;99.90
21823;DHT22;11074;48.596;9.238;2022-11-15T12:49:48;10.90;99.90
21823;DHT22;11074;48.596;9.238;2022-11-15T12:52:15;11.00;99.90
21823;DHT22;11074;48.596;9.238;2022-11-15T13:03:18;11.10;99.90
21823;DHT22;11074;48.596;9.238;2022-11-15T13:05:56;11.20;99.90
21823;DHT22;11074;48.596;9.238;2022-11-15T13:08:56;11.20;99.90
21823;DHT22;11074;48.596;9.238;2022-11-15T13:11:44;11.20;99.90
21823;DHT22;11074;48.596;9.238;2022-11-15T13:19:52;11.30;99.90
21823;DHT22;11074;48.596;9.238;2022-11-15T13:22:27;11.30;99.90
21823;DHT22;11074;48.596;9.238;2022-11-15T13:30:54;11.40;99.90
21823;DHT22;11074;48.596;9.238;2022-11-15T13:33:34;11.50;99.90
21823;DHT22;11074;48.596;9.238;2022-11-15T13:36:06;11.50;99.90
21823;DHT22;11074;48.596;9.238;2022-11-15T13:38:40;11.50;99.90
21823;DHT22;11074;48.596;9.238;2022-11-15T13:41:29;11.50;99.90
21823;DHT22;11074;48.596;9.238;2022-11-15T13:44:01;11.50;99.90
21823;DHT22;11074;48.596;9.238;2022-11-15T13:46:32;11.50;99.90
21823;DHT22;11074;48.596;9.238;2022-11-15T13:49:08;11.40;99.90
21823;DHT22;11074;48.596;9.238;2022-11-15T13:51:55;11.40;99.90
21823;DHT22;11074;48.596;9.238;2022-11-15T13:57:22;11.40;99.90
21823;DHT22;11074;48.596;9.238;2022-11-15T13:59:54;11.50;99.90
21823;DHT22;11074;48.596;9.238;2022-11-15T14:05:02;11.40;99.90
21823;DHT22;11074;48.596;9.238;2022-11-15T14:07:39;11.40;99.90
21823;DHT22;11074;48.596;9.238;2022-11-15T14:10:37;11.40;99.90
21823;DHT22;11074;48.596;9.238;2022-11-15T14:13:09;11.30;99.90
21823;DHT22;11074;48.596;9.238;2022-11-15T14:15:51;11.30;99.90
21823;DHT22;11074;48.596;9.238;2022-11-15T14:18:48;11.30;99.90
21823;DHT22;11074;48.596;9.238;2022-11-15T14:21:16;11.30;99.90
21823;DHT22;11074;48.596;9.238;2022-11-15T14:23:43;11.30;99.90
21823;DHT22;11074;48.596;9.238;2022-11-15T14:26:28;11.20;99.90
21823;DHT22;11074;48.596;9.238;2022-11-15T14:29:27;11.20;99.90
21823;DHT22;11074;48.596;9.238;2022-11-15T14:32:15;11.20;99.90
21823;DHT22;11074;48.596;9.238;2022-11-15T14:34:44;11.20;99.90
21823;DHT22;11074;48.596;9.238;2022-11-15T14:39:49;11.20;99.90
21823;DHT22;11074;48.596;9.238;2022-11-15T14:42:15;11.20;99.90
21823;DHT22;11074;48.596;9.238;2022-11-15T14:44:41;11.10;99.90
21823;DHT22;11074;48.596;9.238;2022-11-15T14:47:07;11.10;99.90
21823;DHT22;11074;48.596;9.238;2022-11-15T14:49:33;11.10;99.90
21823;DHT22;11074;48.596;9.238;2022-11-15T14:51:58;11.10;99.90
21823;DHT22;11074;48.596;9.238;2022-11-15T14:54:24;11.10;99.90
21823;DHT22;11074;48.596;9.238;2022-11-15T14:56:50;11.10;99.90
21823;DHT22;11074;48.596;9.238;2022-11-15T14:59:15;11.10;99.90
21823;DHT22;11074;48.596;9.238;2022-11-15T15:01:41;11.10;99.90
21823;DHT22;11074;48.596;9.238;2022-11-15T15:04:08;11.00;99.90
21823;DHT22;11074;48.596;9.238;2022-11-15T15:06:35;11.00;99.90
21823;DHT22;11074;48.596;9.238;2022-11-15T15:09:01;11.00;99.90
21823;DHT22;11074;48.596;9.238;2022-11-15T15:11:29;11.00;99.90
21823;DHT22;11074;48.596;9.238;2022-11-15T15:13:56;10.90;99.90
21823;DHT22;11074;48.596;9.238;2022-11-15T15:16:25;10.90;99.90
21823;DHT22;11074;48.596;9.238;2022-11-15T15:18:51;10.90;99.90
21823;DHT22;11074;48.596;9.238;2022-11-15T15:21:22;10.90;99.90
21823;DHT22;11074;48.596;9.238;2022-11-15T15:23:49;10.80;99.90
21823;DHT22;11074;48.596;9.238;2022-11-15T15:26:16;10.80;99.90
21823;DHT22;11074;48.596;9.238;2022-11-15T15:28:43;10.80;99.90
21823;DHT22;11074;48.596;9.238;2022-11-15T15:31:09;10.80;99.90
21823;DHT22;11074;48.596;9.238;2022-11-15T15:33:36;10.80;99.90
21823;DHT22;11074;48.596;9.238;2022-11-15T15:36:03;10.80;99.90
21823;DHT22;11074;48.596;9.238;2022-11-15T15:38:29;10.70;99.90
21823;DHT22;11074;48.596;9.238;2022-11-15T15:40:55;10.70;99.90
21823;DHT22;11074;48.596;9.238;2022-11-15T15:43:21;10.60;99.90
21823;DHT22;11074;48.596;9.238;2022-11-15T15:45:47;10.70;99.90
21823;DHT22;11074;48.596;9.238;2022-11-15T15:48:15;10.70;99.90
21823;DHT22;11074;48.596;9.238;2022-11-15T15:50:42;10.60;99.90
21823;DHT22;11074;48.596;9.238;2022-11-15T15:53:09;10.60;99.90
21823;DHT22;11074;48.596;9.238;2022-11-15T15:55:36;10.60;99.90
21823;DHT22;11074;48.596;9.238;2022-11-15T15:58:03;10.60;99.90
21823;DHT22;11074;48.596;9.238;2022-11-15T16:00:30;10.60;99.90
21823;DHT22;11074;48.596;9.238;2022-11-15T16:02:58;10.50;99.90
21823;DHT22;11074;48.596;9.238;2022-11-15T16:05:24;10.50;99.90
21823;DHT22;11074;48.596;9.238;2022-11-15T16:07:50;10.50;99.90
21823;DHT22;11074;48.596;9.238;2022-11-15T16:10:19;10.50;99.90
21823;DHT22;11074;48.596;9.238;2022-11-15T16:12:48;10.50;99.90
21823;DHT22;11074;48.596;9.238;2022-11-15T16:15:14;10.40;99.90
21823;DHT22;11074;48.596;9.238;2022-11-15T16:17:44;10.40;99.90
21823;DHT22;11074;48.596;9.238;2022-11-15T16:22:57;10.40;99.90
21823;DHT22;11074;48.596;9.238;2022-11-15T16:25:25;10.30;99.90
21823;DHT22;11074;48.596;9.238;2022-11-15T16:27:51;10.40;99.90
21823;DHT22;11074;48.596;9.238;2022-11-15T16:30:19;10.30;99.90
21823;DHT22;11074;48.596;9.238;2022-11-15T16:32:46;10.30;99.90
21823;DHT22;11074;48.596;9.238;2022-11-15T16:35:13;10.30;99.90
21823;DHT22;11074;48.596;9.238;2022-11-15T16:37:40;10.30;99.90
21823;DHT22;11074;48.596;9.238;2022-11-15T16:40:31;10.30;99.90
21823;DHT22;11074;48.596;9.238;2022-11-15T16:42:58;10.30;99.90
21823;DHT22;11074;48.596;9.238;2022-11-15T16:45:27;10.30;99.90
21823;DHT22;11074;48.596;9.238;2022-11-15T16:47:54;10.20;99.90
21823;DHT22;11074;48.596;9.238;2022-11-15T16:50:23;10.20;99.90
21823;DHT22;11074;48.596;9.238;2022-11-15T16:52:52;10.20;99.90
21823;DHT22;11074;48.596;9.238;2022-11-15T16:55:21;10.20;99.90
21823;DHT22;11074;48.596;9.238;2022-11-15T16:57:48;10.20;99.90
21823;DHT22;11074;48.596;9.238;2022-11-15T17:00:16;10.20;99.90
21823;DHT22;11074;48.596;9.238;2022-11-15T17:02:44;10.20;99.90
21823;DHT22;11074;48.596;9.238;2022-11-15T17:05:11;10.20;99.90
21823;DHT22;11074;48.596;9.238;2022-11-15T17:07:39;10.10;99.90
21823;DHT22;11074;48.596;9.238;2022-11-15T17:10:05;10.10;99.90
21823;DHT22;11074;48.596;9.238;2022-11-15T17:12:35;10.10;99.90
21823;DHT22;11074;48.596;9.238;2022-11-15T17:15:02;10.10;99.90
21823;DHT22;11074;48.596;9.238;2022-11-15T17:17:29;10.10;99.90
21823;DHT22;11074;48.596;9.238;2022-11-15T17:19:55;10.10;99.90
21823;DHT22;11074;48.596;9.238;2022-11-15T17:22:21;10.10;99.90
21823;DHT22;11074;48.596;9.238;2022-11-15T17:24:47;10.10;99.90
21823;DHT22;11074;48.596;9.238;2022-11-15T17:27:13;10.10;99.90
21823;DHT22;11074;48.596;9.238;2022-11-15T17:29:40;10.10;99.90
21823;DHT22;11074;48.596;9.238;2022-11-15T17:32:06;10.10;99.90
21823;DHT22;11074;48.596;9.238;2022-11-15T17:34:33;10.10;99.90
21823;DHT22;11074;48.596;9.238;2022-11-15T17:36:59;10.10;99.90
21823;DHT22;11074;48.596;9.238;2022-11-15T17:39:25;10.00;99.90
21823;DHT22;11074;48.596;9.238;2022-11-15T17:41:50;10.00;99.90
21823;DHT22;11074;48.596;9.238;2022-11-15T17:44:16;10.00;99.90
21823;DHT22;11074;48.596;9.238;2022-11-15T17:46:42;10.00;99.90
21823;DHT22;11074;48.596;9.238;2022-11-15T17:49:08;10.00;99.90
21823;DHT22;11074;48.596;9.238;2022-11-15T17:51:34;10.00;99.90
21823;DHT22;11074;48.596;9.238;2022-11-15T17:54:00;10.00;99.90